createdAt,value
2023-04-17T00:00:57.053Z,28.80
2023-04-17T00:03:26.411Z,31.35
2023-04-17T00:05:57.790Z,27.50
2023-04-17T00:08:27.218Z,28.00
2023-04-17T00:11:06.527Z,31.17
2023-04-17T00:13:36.863Z,32.35
2023-04-17T00:16:06.259Z,30.67
2023-04-17T00:18:35.536Z,28.35
2023-04-17T00:21:04.848Z,32.03
2023-04-17T00:23:34.253Z,28.30
2023-04-17T00:26:03.551Z,34.00
2023-04-17T00:28:35.158Z,30.30
2023-04-17T00:31:05.559Z,29.17
2023-04-17T00:33:34.937Z,29.00
2023-04-17T00:36:04.147Z,38.88
2023-04-17T00:38:33.363Z,34.88
2023-04-17T00:41:02.708Z,30.50
2023-04-17T00:43:31.980Z,29.73
2023-04-17T00:46:01.543Z,28.40
2023-04-17T00:48:31.231Z,31.33
2023-04-17T00:51:04.310Z,28.63
2023-04-17T00:53:34.787Z,30.05
2023-04-17T00:56:07.447Z,31.60
2023-04-17T00:58:39.350Z,35.47
2023-04-17T01:01:09.090Z,35.45
2023-04-17T01:03:38.564Z,32.03
2023-04-17T01:06:08.356Z,33.58
2023-04-17T01:08:47.307Z,31.92
2023-04-17T01:11:16.634Z,34.03
2023-04-17T01:13:53.271Z,32.63
2023-04-17T01:16:22.679Z,30.58
2023-04-17T01:18:52.242Z,34.58
2023-04-17T01:21:22.344Z,29.52
2023-04-17T01:23:53.882Z,27.92
2023-04-17T01:26:26.497Z,30.77
2023-04-17T01:29:01.068Z,28.02
2023-04-17T01:31:31.055Z,31.83
2023-04-17T01:34:02.174Z,31.92
2023-04-17T01:36:31.538Z,31.25
2023-04-17T01:39:00.799Z,25.08
2023-04-17T01:41:30.057Z,32.20
2023-04-17T01:43:59.370Z,29.73
2023-04-17T01:46:28.674Z,31.30
2023-04-17T01:49:01.279Z,27.63
2023-04-17T01:51:30.664Z,28.75
2023-04-17T01:54:00.662Z,38.80
2023-04-17T01:56:38.389Z,28.17
2023-04-17T01:59:07.793Z,30.35
2023-04-17T02:01:37.928Z,26.65
2023-04-17T02:04:07.542Z,31.23
2023-04-17T02:06:37.032Z,31.27
2023-04-17T02:09:07.116Z,29.20
2023-04-17T02:11:36.741Z,27.98
2023-04-17T02:14:06.030Z,30.77
2023-04-17T02:16:35.457Z,59.92
2023-04-17T02:19:05.056Z,69.80
2023-04-17T02:21:34.281Z,32.80
2023-04-17T02:24:03.498Z,34.08
2023-04-17T02:26:32.772Z,36.28
2023-04-17T02:29:02.075Z,33.80
2023-04-17T02:31:32.588Z,30.25
2023-04-17T02:34:01.921Z,26.60
2023-04-17T02:36:31.673Z,30.77
2023-04-17T02:39:00.965Z,28.38
2023-04-17T02:41:30.278Z,33.35
2023-04-17T02:44:02.907Z,28.60
2023-04-17T02:46:32.156Z,30.73
2023-04-17T02:49:01.544Z,26.58
2023-04-17T02:51:30.838Z,37.70
2023-04-17T02:54:00.126Z,28.60
2023-04-17T02:56:29.416Z,31.60
2023-04-17T02:58:58.933Z,27.73
2023-04-17T03:01:28.889Z,26.08
2023-04-17T03:03:59.761Z,28.00
2023-04-17T03:06:32.074Z,27.92
2023-04-17T03:09:01.510Z,32.65
2023-04-17T03:11:33.375Z,28.27
2023-04-17T03:14:02.673Z,32.05
2023-04-17T03:16:32.160Z,28.73
2023-04-17T03:19:03.975Z,30.75
2023-04-17T03:21:33.455Z,29.98
2023-04-17T03:24:02.866Z,28.77
2023-04-17T03:26:32.170Z,35.08
2023-04-17T03:29:01.532Z,28.27
2023-04-17T03:31:30.858Z,27.58
2023-04-17T03:34:00.211Z,29.98
2023-04-17T03:36:29.618Z,30.15
2023-04-17T03:38:58.925Z,28.90
2023-04-17T03:41:28.160Z,29.77
2023-04-17T03:43:57.644Z,28.30
2023-04-17T03:46:27.464Z,26.67
2023-04-17T03:48:56.990Z,28.52
2023-04-17T03:51:28.439Z,29.20
2023-04-17T03:53:57.788Z,28.98
2023-04-17T03:56:27.208Z,27.73
2023-04-17T03:58:56.731Z,29.33
2023-04-17T04:01:29.377Z,28.75
2023-04-17T04:03:58.843Z,28.70
2023-04-17T04:06:33.778Z,31.17
2023-04-17T04:09:03.044Z,28.02
2023-04-17T04:11:32.432Z,28.88
2023-04-17T04:14:01.891Z,29.65
2023-04-17T04:16:31.385Z,26.30
2023-04-17T04:19:00.676Z,28.98
2023-04-17T04:21:29.977Z,26.75
2023-04-17T04:24:04.428Z,28.48
2023-04-17T04:26:34.356Z,27.58
2023-04-17T04:29:04.700Z,28.08
2023-04-17T04:31:34.480Z,26.40
2023-04-17T04:34:04.143Z,26.75
2023-04-17T04:36:37.181Z,27.10
2023-04-17T04:39:06.847Z,30.58
2023-04-17T04:41:36.529Z,27.27
2023-04-17T04:44:05.918Z,26.45
2023-04-17T04:46:35.242Z,27.55
2023-04-17T04:49:04.588Z,30.85
2023-04-17T04:51:34.858Z,25.60
2023-04-17T04:54:04.727Z,24.88
2023-04-17T04:56:34.367Z,27.23
2023-04-17T04:59:06.848Z,26.08
2023-04-17T05:01:36.953Z,26.65
2023-04-17T05:04:06.877Z,24.80
2023-04-17T05:06:36.465Z,25.27
2023-04-17T05:09:06.011Z,23.65
2023-04-17T05:11:35.932Z,26.65
2023-04-17T05:14:07.843Z,24.40
2023-04-17T05:16:37.944Z,26.55
2023-04-17T05:19:07.291Z,23.77
2023-04-17T05:21:39.307Z,23.33
2023-04-17T05:24:13.799Z,24.50
2023-04-17T05:26:43.257Z,24.55
2023-04-17T05:29:13.557Z,24.08
2023-04-17T05:31:43.150Z,23.67
2023-04-17T05:34:12.536Z,23.45
2023-04-17T05:36:42.037Z,24.27
2023-04-17T05:39:11.667Z,23.95
2023-04-17T05:41:41.155Z,23.98
2023-04-17T05:44:10.512Z,24.52
2023-04-17T05:46:39.807Z,25.08
2023-04-17T05:49:09.250Z,24.55
2023-04-17T05:51:39.919Z,25.65
2023-04-17T05:54:09.284Z,25.95
2023-04-17T05:56:38.588Z,23.70
2023-04-17T05:59:07.977Z,24.52
2023-04-17T06:01:37.784Z,25.17
2023-04-17T06:04:07.777Z,24.77
2023-04-17T06:06:39.868Z,25.27
2023-04-17T06:09:10.720Z,23.77
2023-04-17T06:11:40.320Z,24.08
2023-04-17T06:14:09.594Z,27.10
2023-04-17T06:16:39.273Z,24.23
2023-04-17T06:19:08.645Z,24.88
2023-04-17T06:21:37.965Z,23.92
2023-04-17T06:24:07.953Z,24.48
2023-04-17T06:26:37.204Z,24.50
2023-04-17T06:29:07.137Z,25.27
2023-04-17T06:31:37.048Z,25.65
2023-04-17T06:34:06.453Z,24.65
2023-04-17T06:36:35.772Z,25.08
2023-04-17T06:39:05.059Z,29.48
2023-04-17T06:41:34.608Z,24.88
2023-04-17T06:44:03.964Z,30.73
2023-04-17T06:46:33.385Z,24.55
2023-04-17T06:49:03.687Z,25.45
2023-04-17T06:51:56.281Z,25.67
2023-04-17T06:54:25.808Z,24.90
2023-04-17T06:56:57.644Z,24.13
2023-04-17T06:59:27.194Z,23.85
2023-04-17T07:01:56.696Z,24.58
2023-04-17T07:04:26.105Z,25.05
2023-04-17T07:06:55.526Z,27.73
2023-04-17T07:09:26.150Z,30.10
2023-04-17T07:12:01.865Z,25.02
2023-04-17T07:14:31.737Z,24.58
2023-04-17T07:17:01.613Z,25.10
2023-04-17T07:19:31.025Z,25.15
2023-04-17T07:22:00.449Z,23.75
2023-04-17T07:24:32.270Z,26.98
2023-04-17T07:27:02.832Z,26.55
2023-04-17T07:29:35.274Z,26.13
2023-04-17T07:32:06.773Z,25.35
2023-04-17T07:34:35.943Z,25.27
2023-04-17T07:37:05.233Z,24.65
2023-04-17T07:39:34.584Z,25.17
2023-04-17T07:42:07.557Z,26.73
2023-04-17T07:44:37.335Z,24.00
2023-04-17T07:47:07.110Z,24.50
2023-04-17T07:49:36.503Z,24.42
2023-04-17T07:52:05.868Z,24.63
2023-04-17T07:54:35.244Z,28.13
2023-04-17T07:57:04.620Z,25.30
2023-04-17T07:59:33.925Z,25.30
2023-04-17T08:02:03.256Z,25.67
2023-04-17T08:04:34.133Z,23.90
2023-04-17T08:07:06.411Z,29.20
2023-04-17T08:09:35.721Z,24.23
2023-04-17T08:12:05.405Z,25.42
2023-04-17T08:14:38.014Z,25.35
2023-04-17T08:17:08.406Z,25.88
2023-04-17T08:19:37.731Z,24.10
2023-04-17T08:22:08.366Z,24.27
2023-04-17T08:24:38.115Z,23.95
2023-04-17T08:27:08.828Z,25.05
2023-04-17T08:29:38.724Z,25.27
2023-04-17T08:32:14.734Z,24.50
2023-04-17T08:34:47.225Z,25.07
2023-04-17T08:37:16.784Z,24.15
2023-04-17T08:39:45.974Z,23.60
2023-04-17T08:42:18.843Z,25.70
2023-04-17T08:44:48.507Z,24.75
2023-04-17T08:47:20.038Z,24.45
2023-04-17T08:49:51.469Z,24.45
2023-04-17T08:52:20.820Z,22.08
2023-04-17T08:54:51.265Z,23.85
2023-04-17T08:57:20.908Z,24.30
2023-04-17T08:59:50.181Z,22.70
2023-04-17T09:02:19.561Z,24.17
2023-04-17T09:04:49.485Z,22.30
2023-04-17T09:07:19.469Z,22.65
2023-04-17T09:09:54.164Z,23.15
2023-04-17T09:12:28.284Z,23.75
2023-04-17T09:15:00.356Z,22.02
2023-04-17T09:17:38.580Z,21.75
2023-04-17T09:20:15.638Z,23.05
2023-04-17T09:22:44.988Z,34.20
2023-04-17T09:25:24.158Z,24.60
2023-04-17T09:27:55.575Z,25.23
2023-04-17T09:30:28.037Z,23.08
2023-04-17T09:33:11.354Z,26.45
2023-04-17T09:35:41.042Z,25.08
2023-04-17T09:38:10.340Z,25.95
2023-04-17T09:40:46.078Z,32.22
2023-04-17T09:43:15.389Z,23.80
2023-04-17T09:45:45.930Z,23.90
2023-04-17T09:48:16.570Z,24.88
2023-04-17T09:50:46.494Z,25.70
2023-04-17T09:53:18.005Z,26.90
2023-04-17T09:55:47.641Z,25.83
2023-04-17T09:58:17.462Z,24.77
2023-04-17T10:00:47.081Z,23.90
2023-04-17T10:03:18.899Z,24.35
2023-04-17T10:05:48.963Z,29.90
2023-04-17T10:08:18.628Z,29.40
2023-04-17T10:10:49.663Z,32.20
2023-04-17T10:13:22.158Z,32.70
2023-04-17T10:15:51.805Z,26.13
2023-04-17T10:18:26.173Z,26.20
2023-04-17T10:20:56.245Z,26.52
2023-04-17T10:23:34.396Z,27.60
2023-04-17T10:26:30.592Z,26.77
2023-04-17T10:29:00.092Z,26.25
2023-04-17T10:32:20.297Z,26.67
2023-04-17T10:34:49.737Z,25.92
2023-04-17T10:37:20.018Z,26.95
2023-04-17T10:39:57.720Z,28.63
2023-04-17T10:45:02.442Z,31.58
2023-04-17T10:47:36.666Z,31.30
2023-04-17T10:50:11.045Z,28.60
2023-04-17T10:52:43.013Z,26.38
2023-04-17T10:55:32.500Z,25.23
2023-04-17T10:58:05.795Z,31.33
2023-04-17T11:00:50.351Z,27.77
2023-04-17T11:03:23.742Z,27.92
2023-04-17T11:05:53.626Z,29.63
2023-04-17T11:08:24.539Z,28.00
2023-04-17T11:11:00.168Z,27.52
2023-04-17T11:13:34.818Z,28.23
2023-04-17T11:16:10.275Z,28.35
2023-04-17T11:18:40.272Z,27.10
2023-04-17T11:21:16.468Z,36.45
2023-04-17T11:23:53.398Z,31.00
2023-04-17T11:26:24.566Z,31.80
2023-04-17T11:28:53.688Z,28.33
2023-04-17T11:31:23.640Z,30.42
2023-04-17T11:33:53.324Z,27.15
2023-04-17T11:36:24.238Z,32.60
2023-04-17T11:38:55.402Z,34.67
2023-04-17T11:41:24.691Z,32.45
2023-04-17T11:43:53.975Z,30.08
2023-04-17T11:46:24.449Z,31.70
2023-04-17T11:48:54.206Z,30.13
2023-04-17T11:51:23.523Z,30.75
2023-04-17T11:53:53.282Z,38.22
2023-04-17T11:56:23.974Z,42.83
2023-04-17T11:58:58.624Z,34.75
2023-04-17T12:01:29.679Z,33.33
2023-04-17T12:04:01.023Z,43.17
2023-04-17T12:06:39.979Z,36.90
2023-04-17T12:09:25.689Z,35.25
2023-04-17T12:11:54.954Z,37.38
2023-04-17T12:14:25.870Z,40.38
2023-04-17T12:16:55.816Z,37.67
2023-04-17T12:19:27.636Z,44.33
2023-04-17T12:21:57.656Z,37.63
2023-04-17T12:24:27.142Z,33.20
2023-04-17T12:26:57.350Z,40.47
2023-04-17T12:29:36.745Z,36.10
2023-04-17T12:32:12.609Z,44.78
2023-04-17T12:34:42.206Z,35.75
2023-04-17T12:37:11.521Z,38.33
2023-04-17T12:39:41.051Z,43.72
2023-04-17T12:42:10.315Z,35.20
2023-04-17T12:44:42.952Z,38.67
2023-04-17T12:47:15.312Z,40.58
2023-04-17T12:49:44.713Z,34.88
2023-04-17T12:52:14.141Z,48.25
2023-04-17T12:54:43.474Z,46.95
2023-04-17T12:57:12.812Z,37.72
2023-04-17T12:59:42.303Z,40.67
2023-04-17T13:02:11.682Z,40.65
2023-04-17T13:04:41.218Z,49.55
2023-04-17T13:07:10.762Z,43.30
2023-04-17T13:09:40.122Z,34.53
2023-04-17T13:12:09.532Z,53.22
2023-04-17T13:14:41.896Z,53.90
2023-04-17T13:17:12.032Z,51.55
2023-04-17T13:19:41.514Z,52.67
2023-04-17T13:22:10.815Z,57.28
2023-04-17T13:24:42.926Z,47.22
2023-04-17T13:27:12.845Z,65.20
2023-04-17T13:29:42.291Z,54.55
2023-04-17T13:32:12.027Z,44.63
2023-04-17T13:34:41.447Z,60.63
2023-04-17T13:37:11.268Z,55.45
2023-04-17T13:39:40.766Z,48.75
2023-04-17T13:42:10.442Z,45.97
2023-04-17T13:44:39.646Z,46.22
2023-04-17T13:47:09.173Z,56.33
2023-04-17T13:49:38.837Z,47.53
2023-04-17T13:52:08.816Z,42.65
2023-04-17T13:54:38.166Z,38.72
2023-04-17T13:57:08.092Z,37.08
2023-04-17T13:59:37.581Z,42.30
2023-04-17T14:02:07.005Z,38.92
2023-04-17T14:04:36.495Z,40.10
2023-04-17T14:07:06.929Z,57.90
2023-04-17T14:09:36.234Z,52.97
2023-04-17T14:12:05.636Z,39.70
2023-04-17T14:14:34.981Z,34.13
2023-04-17T14:17:05.163Z,29.67
2023-04-17T14:19:34.401Z,31.65
2023-04-17T14:22:03.679Z,31.75
2023-04-17T14:24:32.908Z,25.92
2023-04-17T14:27:03.427Z,69.40
2023-04-17T14:29:32.728Z,33.05
2023-04-17T14:32:02.032Z,31.90
2023-04-17T14:34:31.299Z,29.13
2023-04-17T14:37:00.815Z,29.05
2023-04-17T14:39:31.552Z,27.70
2023-04-17T14:42:02.487Z,31.40
2023-04-17T14:44:33.810Z,26.23
2023-04-17T14:47:03.853Z,28.65
2023-04-17T14:49:33.195Z,29.38
2023-04-17T14:52:02.495Z,31.48
2023-04-17T14:54:31.902Z,26.52
2023-04-17T14:57:01.272Z,24.02
2023-04-17T14:59:30.941Z,24.50
2023-04-17T15:02:00.307Z,22.73
2023-04-17T15:04:29.674Z,25.85
2023-04-17T15:06:59.021Z,23.80
2023-04-17T15:09:28.378Z,25.65
2023-04-17T15:11:57.819Z,25.35
2023-04-17T15:14:27.236Z,36.10
2023-04-17T15:16:59.380Z,24.70
2023-04-17T15:19:28.879Z,24.38
2023-04-17T15:21:58.268Z,30.25
2023-04-17T15:24:27.497Z,28.52
2023-04-17T15:26:56.790Z,32.90
2023-04-17T15:29:26.134Z,26.42
2023-04-17T15:31:55.471Z,38.63
2023-04-17T15:34:25.720Z,30.25
2023-04-17T15:36:54.981Z,29.63
2023-04-17T15:39:24.471Z,25.65
2023-04-17T15:41:54.102Z,24.92
2023-04-17T15:44:23.456Z,25.25
2023-04-17T15:46:52.934Z,24.73
2023-04-17T15:49:22.663Z,24.55
2023-04-17T15:51:52.203Z,26.38
2023-04-17T15:54:21.701Z,25.33
2023-04-17T15:56:51.187Z,29.13
2023-04-17T15:59:20.491Z,25.95
2023-04-17T16:01:49.845Z,25.33
2023-04-17T16:04:20.459Z,25.00
2023-04-17T16:06:49.842Z,26.50
2023-04-17T16:09:21.019Z,32.30
2023-04-17T16:11:50.275Z,28.77
2023-04-17T16:14:19.748Z,24.88
2023-04-17T16:16:49.065Z,26.83
2023-04-17T16:19:18.669Z,24.23
2023-04-17T16:21:48.198Z,27.48
2023-04-17T16:24:17.538Z,23.23
2023-04-17T16:26:46.806Z,26.33
2023-04-17T16:29:16.119Z,25.05
2023-04-17T16:31:45.420Z,27.83
2023-04-17T16:34:15.347Z,24.98
2023-04-17T16:36:45.799Z,24.42
2023-04-17T16:39:28.676Z,28.85
2023-04-17T16:41:58.760Z,24.92
2023-04-17T16:44:29.708Z,26.83
2023-04-17T16:49:33.989Z,28.35
2023-04-17T16:52:05.326Z,23.38
2023-04-17T16:54:38.469Z,26.17
2023-04-17T16:57:07.746Z,26.55
2023-04-17T16:59:37.104Z,24.90
2023-04-17T17:02:06.468Z,29.15
2023-04-17T17:04:35.864Z,25.75
2023-04-17T17:07:05.146Z,25.95
2023-04-17T17:09:34.466Z,24.73
2023-04-17T17:12:04.406Z,23.70
2023-04-17T17:14:33.683Z,23.05
2023-04-17T17:17:04.463Z,22.65
2023-04-17T17:19:33.769Z,23.40
2023-04-17T17:22:03.197Z,25.67
2023-04-17T17:24:32.476Z,22.52
2023-04-17T17:27:01.707Z,23.95
2023-04-17T17:29:31.029Z,26.23
2023-04-17T17:32:00.386Z,22.77
2023-04-17T17:34:30.477Z,23.48
2023-04-17T17:37:20.286Z,23.13
2023-04-17T17:39:50.214Z,24.48
2023-04-17T17:42:19.476Z,23.70
2023-04-17T17:44:48.839Z,25.15
2023-04-17T17:47:18.536Z,22.88
2023-04-17T17:52:32.492Z,26.17
2023-04-17T17:55:01.833Z,23.25
2023-04-17T17:57:41.937Z,21.77
2023-04-17T18:00:18.361Z,22.23
2023-04-17T18:05:30.179Z,22.10
2023-04-17T18:07:59.520Z,22.45
2023-04-17T18:10:28.966Z,20.85
2023-04-17T18:12:58.603Z,24.15
2023-04-17T18:15:38.652Z,22.95
2023-04-17T18:18:28.343Z,23.33
2023-04-17T18:20:57.837Z,25.50
2023-04-17T18:23:27.167Z,21.75
2023-04-17T18:26:04.541Z,23.75
2023-04-17T18:31:18.405Z,26.42
2023-04-17T18:33:47.815Z,22.85
2023-04-17T18:36:17.053Z,27.27
2023-04-17T18:38:46.340Z,22.55
2023-04-17T18:41:18.658Z,26.00
2023-04-17T18:44:08.009Z,23.70
2023-04-17T18:46:37.309Z,21.35
2023-04-17T18:49:06.659Z,24.92
2023-04-17T18:51:36.000Z,25.92
2023-04-17T18:54:07.791Z,24.38
2023-04-17T18:56:37.234Z,24.48
2023-04-17T18:59:06.544Z,22.52
2023-04-17T19:01:35.738Z,22.98
2023-04-17T19:04:05.782Z,23.35
2023-04-17T19:06:34.994Z,27.75
2023-04-17T19:09:04.549Z,22.35
2023-04-17T19:11:34.482Z,22.77
2023-04-17T19:14:03.752Z,23.58
2023-04-17T19:16:32.969Z,23.70
2023-04-17T19:19:02.250Z,23.50
2023-04-17T19:21:33.849Z,24.55
2023-04-17T19:24:03.036Z,24.70
2023-04-17T19:29:18.031Z,22.58
2023-04-17T19:31:47.300Z,31.42
2023-04-17T19:34:16.540Z,25.00
2023-04-17T19:36:45.720Z,26.48
2023-04-17T19:41:58.938Z,27.95
2023-04-17T19:44:29.256Z,26.88
2023-04-17T19:46:59.065Z,23.25
2023-04-17T19:49:28.240Z,24.58
2023-04-17T19:51:57.752Z,24.83
2023-04-17T19:54:26.907Z,25.73
2023-04-17T19:56:56.432Z,24.98
2023-04-17T19:59:25.589Z,25.25
2023-04-17T20:01:54.832Z,24.60
2023-04-17T20:04:24.281Z,28.15
2023-04-17T20:06:53.546Z,25.20
2023-04-17T20:09:22.800Z,27.85
2023-04-17T20:11:52.029Z,26.05
2023-04-17T20:14:21.731Z,23.10
2023-04-17T20:16:51.053Z,25.20
2023-04-17T20:19:21.492Z,25.02
2023-04-17T20:21:50.777Z,26.35
2023-04-17T20:24:26.579Z,24.65
2023-04-17T20:29:28.257Z,25.98
2023-04-17T20:31:57.617Z,27.52
2023-04-17T20:34:27.943Z,26.67
2023-04-17T20:36:57.198Z,28.98
2023-04-17T20:39:26.941Z,27.20
2023-04-17T20:41:56.255Z,35.85
2023-04-17T20:44:25.537Z,30.80
2023-04-17T20:46:54.836Z,29.30
2023-04-17T20:49:24.093Z,27.60
2023-04-17T20:51:53.871Z,29.02
2023-04-17T20:54:24.136Z,27.33
2023-04-17T20:56:53.592Z,29.52
2023-04-17T20:59:23.533Z,28.92
2023-04-17T21:01:53.474Z,29.23
2023-04-17T21:04:23.581Z,28.98
2023-04-17T21:06:52.883Z,29.88
2023-04-17T21:12:16.481Z,27.02
2023-04-17T21:14:45.823Z,30.30
2023-04-17T21:17:15.403Z,26.95
2023-04-17T21:19:44.734Z,27.30
2023-04-17T21:22:25.719Z,26.40
2023-04-17T21:24:55.028Z,25.88
2023-04-17T21:27:24.720Z,27.02
2023-04-17T21:29:53.984Z,27.58
2023-04-17T21:32:23.382Z,27.27
2023-04-17T21:34:52.700Z,28.33
2023-04-17T21:37:22.022Z,26.73
2023-04-17T21:39:51.551Z,26.25
2023-04-17T21:42:20.857Z,25.35
2023-04-17T21:44:50.114Z,25.33
2023-04-17T21:47:20.641Z,28.25
2023-04-17T21:49:50.437Z,27.90
2023-04-17T21:52:19.884Z,29.48
2023-04-17T21:54:50.273Z,26.25
2023-04-17T21:57:19.860Z,29.23
2023-04-17T21:59:49.571Z,26.92
2023-04-17T22:02:18.916Z,30.98
2023-04-17T22:04:48.265Z,28.85
2023-04-17T22:07:24.707Z,26.35
2023-04-17T22:09:53.987Z,29.52
2023-04-17T22:12:23.410Z,28.25
2023-04-17T22:14:52.737Z,27.20
2023-04-17T22:17:22.083Z,26.65
2023-04-17T22:19:51.396Z,27.45
2023-04-17T22:22:20.904Z,33.20
2023-04-17T22:24:50.174Z,27.23
2023-04-17T22:27:19.529Z,28.08
2023-04-17T22:29:48.862Z,28.05
2023-04-17T22:32:18.153Z,36.35
2023-04-17T22:34:51.572Z,33.95
2023-04-17T22:37:20.887Z,28.55
2023-04-17T22:39:54.247Z,33.58
2023-04-17T22:42:23.666Z,30.70
2023-04-17T22:44:53.301Z,28.98
2023-04-17T22:47:23.989Z,35.45
2023-04-17T22:49:53.637Z,32.53
2023-04-17T22:55:07.670Z,30.58
2023-04-17T22:57:37.131Z,32.72
2023-04-17T23:00:09.141Z,30.70
2023-04-17T23:02:38.921Z,35.92
2023-04-17T23:05:18.127Z,30.55
2023-04-17T23:07:52.743Z,31.60
2023-04-17T23:10:22.763Z,33.10
2023-04-17T23:12:52.156Z,29.95
2023-04-17T23:15:22.082Z,38.47
2023-04-17T23:17:51.435Z,33.47
2023-04-17T23:20:21.493Z,35.70
2023-04-17T23:22:50.826Z,34.55
2023-04-17T23:25:20.415Z,33.60
2023-04-17T23:27:49.676Z,33.65
2023-04-17T23:30:19.390Z,42.80
2023-04-17T23:32:49.149Z,37.13
2023-04-17T23:35:18.565Z,35.63
2023-04-17T23:37:49.277Z,38.70
2023-04-17T23:40:19.374Z,40.03
2023-04-17T23:42:48.660Z,35.53
2023-04-17T23:45:18.098Z,36.72
2023-04-17T23:47:47.437Z,36.13
2023-04-17T23:52:59.295Z,35.38
2023-04-17T23:55:28.997Z,39.15
2023-04-17T23:57:59.291Z,43.72
